sensor_id;sensor_type;location;lat;lon;timestamp;pressure;altitude;pressure_sealevel;temperature;humidity
64616;BME280;51027;42.162;24.754;2022-08-01T00:01:08;99377.22;;;23.05;57.56
64616;BME280;51027;42.162;24.754;2022-08-01T00:03:34;99364.94;;;23.03;57.68
64616;BME280;51027;42.162;24.754;2022-08-01T00:05:59;99373.53;;;23.06;57.82
64616;BME280;51027;42.162;24.754;2022-08-01T00:08:25;99379.00;;;23.14;57.73
64616;BME280;51027;42.162;24.754;2022-08-01T00:10:50;99365.72;;;23.13;57.54
64616;BME280;51027;42.162;24.754;2022-08-01T00:13:16;99374.19;;;23.18;57.63
64616;BME280;51027;42.162;24.754;2022-08-01T00:15:41;99368.19;;;22.96;57.33
64616;BME280;51027;42.162;24.754;2022-08-01T00:18:07;99362.84;;;22.87;57.89
64616;BME280;51027;42.162;24.754;2022-08-01T00:20:32;99355.22;;;22.92;56.98
64616;BME280;51027;42.162;24.754;2022-08-01T00:22:58;99361.69;;;22.99;56.57
64616;BME280;51027;42.162;24.754;2022-08-01T00:25:23;99364.09;;;23.02;56.57
64616;BME280;51027;42.162;24.754;2022-08-01T00:27:49;99351.75;;;23.09;55.94
64616;BME280;51027;42.162;24.754;2022-08-01T00:30:14;99351.31;;;23.14;55.24
64616;BME280;51027;42.162;24.754;2022-08-01T00:32:41;99358.22;;;23.16;54.69
64616;BME280;51027;42.162;24.754;2022-08-01T00:35:07;99349.56;;;23.22;54.17
64616;BME280;51027;42.162;24.754;2022-08-01T00:37:32;99356.94;;;23.20;54.19
64616;BME280;51027;42.162;24.754;2022-08-01T00:39:58;99354.94;;;23.22;54.46
64616;BME280;51027;42.162;24.754;2022-08-01T00:42:23;99367.97;;;23.17;54.13
64616;BME280;51027;42.162;24.754;2022-08-01T00:44:49;99362.16;;;23.22;54.33
64616;BME280;51027;42.162;24.754;2022-08-01T00:47:14;99370.50;;;23.19;54.22
64616;BME280;51027;42.162;24.754;2022-08-01T00:49:40;99362.06;;;23.14;54.17
64616;BME280;51027;42.162;24.754;2022-08-01T00:52:05;99368.88;;;22.98;54.46
64616;BME280;51027;42.162;24.754;2022-08-01T00:54:31;99376.25;;;22.96;54.47
64616;BME280;51027;42.162;24.754;2022-08-01T00:56:57;99365.66;;;22.95;54.78
64616;BME280;51027;42.162;24.754;2022-08-01T00:59:23;99365.50;;;22.96;55.08
64616;BME280;51027;42.162;24.754;2022-08-01T01:01:49;99368.03;;;22.98;54.55
64616;BME280;51027;42.162;24.754;2022-08-01T01:04:16;99360.31;;;22.85;54.85
64616;BME280;51027;42.162;24.754;2022-08-01T01:06:48;99366.81;;;22.92;54.74
64616;BME280;51027;42.162;24.754;2022-08-01T01:14:38;99372.31;;;22.91;54.80
64616;BME280;51027;42.162;24.754;2022-08-01T01:17:09;99379.13;;;22.66;55.25
64616;BME280;51027;42.162;24.754;2022-08-01T01:19:39;99384.63;;;22.74;55.06
64616;BME280;51027;42.162;24.754;2022-08-01T01:22:24;99378.00;;;22.68;55.32
64616;BME280;51027;42.162;24.754;2022-08-01T01:30:23;99377.91;;;22.41;55.86
64616;BME280;51027;42.162;24.754;2022-08-01T01:32:51;99363.50;;;22.32;55.96
64616;BME280;51027;42.162;24.754;2022-08-01T01:35:22;99363.78;;;22.39;56.05
64616;BME280;51027;42.162;24.754;2022-08-01T01:37:56;99381.16;;;22.35;56.18
64616;BME280;51027;42.162;24.754;2022-08-01T01:40:24;99375.09;;;22.33;56.06
64616;BME280;51027;42.162;24.754;2022-08-01T01:42:51;99371.00;;;22.29;56.03
64616;BME280;51027;42.162;24.754;2022-08-01T01:45:17;99379.63;;;22.23;56.05
64616;BME280;51027;42.162;24.754;2022-08-01T01:47:45;99378.75;;;22.32;55.90
64616;BME280;51027;42.162;24.754;2022-08-01T01:50:12;99367.59;;;22.17;56.13
64616;BME280;51027;42.162;24.754;2022-08-01T01:52:40;99372.56;;;22.22;56.04
64616;BME280;51027;42.162;24.754;2022-08-01T01:55:08;99368.88;;;22.23;56.01
64616;BME280;51027;42.162;24.754;2022-08-01T01:57:40;99368.88;;;22.13;56.71
64616;BME280;51027;42.162;24.754;2022-08-01T02:00:07;99368.75;;;22.14;56.25
64616;BME280;51027;42.162;24.754;2022-08-01T02:02:36;99366.34;;;22.11;56.46
64616;BME280;51027;42.162;24.754;2022-08-01T02:05:02;99372.97;;;22.17;56.34
64616;BME280;51027;42.162;24.754;2022-08-01T02:07:28;99374.91;;;22.05;56.60
64616;BME280;51027;42.162;24.754;2022-08-01T02:09:55;99380.84;;;21.99;56.77
64616;BME280;51027;42.162;24.754;2022-08-01T02:12:22;99371.69;;;22.02;56.77
64616;BME280;51027;42.162;24.754;2022-08-01T02:14:50;99373.06;;;21.96;57.21
64616;BME280;51027;42.162;24.754;2022-08-01T02:17:19;99375.19;;;22.02;56.68
64616;BME280;51027;42.162;24.754;2022-08-01T02:19:46;99367.59;;;21.98;56.63
64616;BME280;51027;42.162;24.754;2022-08-01T02:24:50;99375.63;;;21.98;56.57
64616;BME280;51027;42.162;24.754;2022-08-01T02:27:30;99377.75;;;22.04;56.55
64616;BME280;51027;42.162;24.754;2022-08-01T02:30:02;99376.38;;;22.09;56.12
64616;BME280;51027;42.162;24.754;2022-08-01T02:32:34;99364.81;;;22.09;56.25
64616;BME280;51027;42.162;24.754;2022-08-01T02:35:05;99376.75;;;22.05;56.09
64616;BME280;51027;42.162;24.754;2022-08-01T02:37:34;99374.06;;;22.05;55.97
64616;BME280;51027;42.162;24.754;2022-08-01T02:40:02;99379.06;;;22.09;56.10
64616;BME280;51027;42.162;24.754;2022-08-01T02:42:29;99381.59;;;22.11;55.63
64616;BME280;51027;42.162;24.754;2022-08-01T02:44:56;99362.22;;;21.98;55.69
64616;BME280;51027;42.162;24.754;2022-08-01T02:47:23;99362.22;;;21.98;55.75
64616;BME280;51027;42.162;24.754;2022-08-01T02:49:51;99344.69;;;21.84;55.49
64616;BME280;51027;42.162;24.754;2022-08-01T02:52:20;99367.84;;;22.04;55.27
64616;BME280;51027;42.162;24.754;2022-08-01T02:54:48;99367.72;;;21.96;55.37
64616;BME280;51027;42.162;24.754;2022-08-01T02:57:15;99362.78;;;21.92;55.50
64616;BME280;51027;42.162;24.754;2022-08-01T02:59:42;99367.28;;;21.91;55.09
64616;BME280;51027;42.162;24.754;2022-08-01T03:02:08;99356.00;;;21.88;55.13
64616;BME280;51027;42.162;24.754;2022-08-01T03:04:37;99366.88;;;21.96;55.01
64616;BME280;51027;42.162;24.754;2022-08-01T03:07:04;99355.72;;;21.91;54.62
64616;BME280;51027;42.162;24.754;2022-08-01T03:09:34;99355.03;;;21.98;54.60
64616;BME280;51027;42.162;24.754;2022-08-01T03:12:02;99361.09;;;21.91;54.16
64616;BME280;51027;42.162;24.754;2022-08-01T03:14:29;99365.75;;;21.98;54.44
64616;BME280;51027;42.162;24.754;2022-08-01T03:16:57;99349.81;;;21.87;54.28
64616;BME280;51027;42.162;24.754;2022-08-01T03:19:24;99363.91;;;21.89;54.24
64616;BME280;51027;42.162;24.754;2022-08-01T03:21:51;99358.25;;;21.92;54.26
64616;BME280;51027;42.162;24.754;2022-08-01T03:24:18;99359.66;;;21.96;54.06
64616;BME280;51027;42.162;24.754;2022-08-01T03:26:45;99351.22;;;21.91;54.14
64616;BME280;51027;42.162;24.754;2022-08-01T03:29:17;99346.13;;;21.88;53.51
64616;BME280;51027;42.162;24.754;2022-08-01T03:31:46;99360.09;;;22.01;53.53
64616;BME280;51027;42.162;24.754;2022-08-01T03:34:12;99362.25;;;22.07;53.44
64616;BME280;51027;42.162;24.754;2022-08-01T03:36:45;99348.94;;;21.96;53.51
64616;BME280;51027;42.162;24.754;2022-08-01T03:39:12;99355.06;;;22.08;53.45
64616;BME280;51027;42.162;24.754;2022-08-01T03:41:41;99350.22;;;22.02;53.19
64616;BME280;51027;42.162;24.754;2022-08-01T03:44:18;99359.56;;;21.98;53.24
64616;BME280;51027;42.162;24.754;2022-08-01T03:46:47;99358.13;;;22.03;52.89
64616;BME280;51027;42.162;24.754;2022-08-01T03:49:23;99358.69;;;21.97;53.37
64616;BME280;51027;42.162;24.754;2022-08-01T03:51:51;99361.09;;;22.00;53.35
64616;BME280;51027;42.162;24.754;2022-08-01T03:54:21;99362.50;;;21.95;53.36
64616;BME280;51027;42.162;24.754;2022-08-01T03:56:50;99363.78;;;22.00;52.90
64616;BME280;51027;42.162;24.754;2022-08-01T03:59:17;99356.72;;;21.99;52.93
64616;BME280;51027;42.162;24.754;2022-08-01T04:01:45;99360.25;;;22.00;52.92
64616;BME280;51027;42.162;24.754;2022-08-01T04:04:12;99355.88;;;21.99;52.63
64616;BME280;51027;42.162;24.754;2022-08-01T04:06:41;99358.31;;;22.11;52.76
64616;BME280;51027;42.162;24.754;2022-08-01T04:09:09;99364.94;;;22.07;52.33
64616;BME280;51027;42.162;24.754;2022-08-01T04:11:36;99367.03;;;22.13;52.24
64616;BME280;51027;42.162;24.754;2022-08-01T04:14:02;99376.38;;;22.29;52.17
64616;BME280;51027;42.162;24.754;2022-08-01T04:16:28;99368.31;;;22.29;52.34
64616;BME280;51027;42.162;24.754;2022-08-01T04:18:54;99367.59;;;22.36;51.85
64616;BME280;51027;42.162;24.754;2022-08-01T04:21:25;99365.63;;;22.38;51.77
64616;BME280;51027;42.162;24.754;2022-08-01T04:23:58;99365.91;;;22.35;52.02
64616;BME280;51027;42.162;24.754;2022-08-01T04:26:25;99366.88;;;22.34;51.92
64616;BME280;51027;42.162;24.754;2022-08-01T04:28:53;99370.41;;;22.35;52.21
64616;BME280;51027;42.162;24.754;2022-08-01T04:31:20;99369.56;;;22.34;52.41
64616;BME280;51027;42.162;24.754;2022-08-01T04:33:49;99377.47;;;22.26;52.27
64616;BME280;51027;42.162;24.754;2022-08-01T04:36:19;99371.41;;;22.34;52.74
64616;BME280;51027;42.162;24.754;2022-08-01T04:38:50;99375.47;;;22.57;52.43
64616;BME280;51027;42.162;24.754;2022-08-01T04:41:18;99377.38;;;22.18;53.19
64616;BME280;51027;42.162;24.754;2022-08-01T04:43:45;99372.00;;;22.28;53.12
64616;BME280;51027;42.162;24.754;2022-08-01T04:46:13;99363.66;;;22.11;52.82
64616;BME280;51027;42.162;24.754;2022-08-01T04:48:39;99374.94;;;22.44;52.87
64616;BME280;51027;42.162;24.754;2022-08-01T04:51:12;99372.22;;;22.54;52.81
64616;BME280;51027;42.162;24.754;2022-08-01T04:53:38;99358.28;;;22.40;52.77
64616;BME280;51027;42.162;24.754;2022-08-01T04:56:04;99380.59;;;22.51;53.05
64616;BME280;51027;42.162;24.754;2022-08-01T04:58:29;99376.59;;;22.64;52.95
64616;BME280;51027;42.162;24.754;2022-08-01T05:00:54;99375.47;;;22.57;52.58
64616;BME280;51027;42.162;24.754;2022-08-01T05:03:20;99380.44;;;22.42;52.64
64616;BME280;51027;42.162;24.754;2022-08-01T05:05:45;99372.78;;;22.57;52.86
64616;BME280;51027;42.162;24.754;2022-08-01T05:08:11;99370.69;;;22.51;52.40
64616;BME280;51027;42.162;24.754;2022-08-01T05:10:36;99373.50;;;22.69;52.20
64616;BME280;51027;42.162;24.754;2022-08-01T05:13:02;99367.13;;;22.70;51.21
64616;BME280;51027;42.162;24.754;2022-08-01T05:15:27;99378.09;;;22.77;50.60
64616;BME280;51027;42.162;24.754;2022-08-01T05:17:53;99375.16;;;22.80;50.22
64616;BME280;51027;42.162;24.754;2022-08-01T05:20:18;99367.09;;;22.89;49.70
64616;BME280;51027;42.162;24.754;2022-08-01T05:22:44;99376.13;;;23.25;49.19
64616;BME280;51027;42.162;24.754;2022-08-01T05:25:09;99372.13;;;23.02;49.01
64616;BME280;51027;42.162;24.754;2022-08-01T05:27:35;99371.75;;;23.24;49.09
64616;BME280;51027;42.162;24.754;2022-08-01T05:30:08;99376.44;;;23.22;49.87
64616;BME280;51027;42.162;24.754;2022-08-01T05:32:34;99374.84;;;23.30;47.93
64616;BME280;51027;42.162;24.754;2022-08-01T05:35:00;99377.19;;;23.42;47.79
64616;BME280;51027;42.162;24.754;2022-08-01T05:37:25;99371.88;;;23.33;47.78
64616;BME280;51027;42.162;24.754;2022-08-01T05:39:51;99381.41;;;23.45;47.62
64616;BME280;51027;42.162;24.754;2022-08-01T05:42:16;99373.25;;;23.37;46.95
64616;BME280;51027;42.162;24.754;2022-08-01T05:44:41;99369.44;;;23.57;46.55
64616;BME280;51027;42.162;24.754;2022-08-01T05:47:07;99372.13;;;23.67;45.83
64616;BME280;51027;42.162;24.754;2022-08-01T05:49:33;99358.41;;;23.60;45.51
64616;BME280;51027;42.162;24.754;2022-08-01T05:51:58;99377.00;;;23.81;45.39
64616;BME280;51027;42.162;24.754;2022-08-01T05:54:23;99374.00;;;24.02;44.68
64616;BME280;51027;42.162;24.754;2022-08-01T05:56:49;99370.06;;;23.96;43.88
64616;BME280;51027;42.162;24.754;2022-08-01T05:59:15;99372.44;;;23.99;43.35
64616;BME280;51027;42.162;24.754;2022-08-01T06:01:40;99371.75;;;23.97;42.92
64616;BME280;51027;42.162;24.754;2022-08-01T06:04:06;99367.84;;;24.09;43.00
64616;BME280;51027;42.162;24.754;2022-08-01T06:06:31;99367.06;;;24.17;42.45
64616;BME280;51027;42.162;24.754;2022-08-01T06:08:57;99370.16;;;24.22;41.86
64616;BME280;51027;42.162;24.754;2022-08-01T06:11:22;99367.00;;;24.09;41.54
64616;BME280;51027;42.162;24.754;2022-08-01T06:13:48;99364.28;;;24.09;41.32
64616;BME280;51027;42.162;24.754;2022-08-01T06:16:13;99365.91;;;24.37;41.62
64616;BME280;51027;42.162;24.754;2022-08-01T06:18:39;99374.47;;;24.33;42.26
64616;BME280;51027;42.162;24.754;2022-08-01T06:21:04;99370.00;;;24.24;40.92
64616;BME280;51027;42.162;24.754;2022-08-01T06:23:30;99358.84;;;24.36;41.34
64616;BME280;51027;42.162;24.754;2022-08-01T06:25:56;99359.13;;;24.51;41.20
64616;BME280;51027;42.162;24.754;2022-08-01T06:28:21;99349.91;;;24.54;40.58
64616;BME280;51027;42.162;24.754;2022-08-01T06:30:47;99351.41;;;24.82;40.17
64616;BME280;51027;42.162;24.754;2022-08-01T06:33:12;99353.69;;;24.95;40.33
64616;BME280;51027;42.162;24.754;2022-08-01T06:35:38;99351.59;;;25.07;39.94
64616;BME280;51027;42.162;24.754;2022-08-01T06:38:03;99342.59;;;24.98;39.06
64616;BME280;51027;42.162;24.754;2022-08-01T06:40:29;99350.09;;;25.12;39.68
64616;BME280;51027;42.162;24.754;2022-08-01T06:42:54;99347.56;;;25.11;39.01
64616;BME280;51027;42.162;24.754;2022-08-01T06:45:20;99339.16;;;25.14;38.81
64616;BME280;51027;42.162;24.754;2022-08-01T06:47:48;99296.09;;;24.96;38.62
64616;BME280;51027;42.162;24.754;2022-08-01T06:50:13;99347.28;;;25.22;38.29
64616;BME280;51027;42.162;24.754;2022-08-01T06:52:40;99337.38;;;25.31;37.57
64616;BME280;51027;42.162;24.754;2022-08-01T06:55:06;99338.44;;;25.46;37.51
64616;BME280;51027;42.162;24.754;2022-08-01T06:57:32;99333.22;;;25.44;37.33
64616;BME280;51027;42.162;24.754;2022-08-01T07:00:02;99319.25;;;25.57;37.67
64616;BME280;51027;42.162;24.754;2022-08-01T07:02:28;99303.25;;;25.55;37.35
64616;BME280;51027;42.162;24.754;2022-08-01T07:04:53;99325.88;;;25.71;37.55
64616;BME280;51027;42.162;24.754;2022-08-01T07:07:19;99309.97;;;25.51;37.29
64616;BME280;51027;42.162;24.754;2022-08-01T07:09:44;99323.13;;;25.54;36.75
64616;BME280;51027;42.162;24.754;2022-08-01T07:12:10;99323.06;;;25.97;37.15
64616;BME280;51027;42.162;24.754;2022-08-01T07:14:36;99327.75;;;25.95;36.87
64616;BME280;51027;42.162;24.754;2022-08-01T07:17:01;99329.13;;;25.91;36.11
64616;BME280;51027;42.162;24.754;2022-08-01T07:19:27;99331.75;;;25.66;35.62
64616;BME280;51027;42.162;24.754;2022-08-01T07:21:53;99331.31;;;25.79;36.10
64616;BME280;51027;42.162;24.754;2022-08-01T07:24:22;99311.06;;;25.83;36.25
64616;BME280;51027;42.162;24.754;2022-08-01T07:26:47;99314.78;;;25.98;35.91
64616;BME280;51027;42.162;24.754;2022-08-01T07:29:13;99315.78;;;26.22;36.16
64616;BME280;51027;42.162;24.754;2022-08-01T07:31:39;99312.75;;;26.25;35.75
64616;BME280;51027;42.162;24.754;2022-08-01T07:34:05;99312.25;;;26.54;35.38
64616;BME280;51027;42.162;24.754;2022-08-01T07:36:30;99308.72;;;26.53;35.47
64616;BME280;51027;42.162;24.754;2022-08-01T07:38:56;99303.28;;;26.69;34.80
64616;BME280;51027;42.162;24.754;2022-08-01T07:41:22;99310.84;;;26.82;34.58
64616;BME280;51027;42.162;24.754;2022-08-01T07:43:48;99293.59;;;26.83;34.43
64616;BME280;51027;42.162;24.754;2022-08-01T07:46:14;99302.56;;;26.84;34.64
64616;BME280;51027;42.162;24.754;2022-08-01T07:48:40;99302.00;;;26.96;34.55
64616;BME280;51027;42.162;24.754;2022-08-01T07:51:05;99300.19;;;26.81;33.50
64616;BME280;51027;42.162;24.754;2022-08-01T07:53:31;99295.75;;;26.96;33.69
64616;BME280;51027;42.162;24.754;2022-08-01T07:55:56;99301.50;;;26.93;34.06
64616;BME280;51027;42.162;24.754;2022-08-01T07:58:22;99298.16;;;26.83;34.16
64616;BME280;51027;42.162;24.754;2022-08-01T08:00:47;99296.78;;;27.03;33.91
64616;BME280;51027;42.162;24.754;2022-08-01T08:03:13;99297.09;;;27.00;33.84
64616;BME280;51027;42.162;24.754;2022-08-01T08:05:38;99294.91;;;26.95;34.15
64616;BME280;51027;42.162;24.754;2022-08-01T08:08:08;99279.75;;;27.25;34.12
64616;BME280;51027;42.162;24.754;2022-08-01T08:10:35;99258.56;;;27.06;33.75
64616;BME280;51027;42.162;24.754;2022-08-01T08:13:02;99284.78;;;26.97;33.44
64616;BME280;51027;42.162;24.754;2022-08-01T08:15:28;99261.69;;;27.26;33.34
64616;BME280;51027;42.162;24.754;2022-08-01T08:17:54;99272.41;;;27.42;33.19
64616;BME280;51027;42.162;24.754;2022-08-01T08:20:20;99280.38;;;27.36;32.89
64616;BME280;51027;42.162;24.754;2022-08-01T08:22:50;99265.38;;;27.56;33.16
64616;BME280;51027;42.162;24.754;2022-08-01T08:25:16;99267.88;;;27.66;33.14
64616;BME280;51027;42.162;24.754;2022-08-01T08:27:42;99273.44;;;27.64;33.04
64616;BME280;51027;42.162;24.754;2022-08-01T08:30:07;99254.50;;;27.10;32.81
64616;BME280;51027;42.162;24.754;2022-08-01T08:32:34;99268.75;;;27.58;33.01
64616;BME280;51027;42.162;24.754;2022-08-01T08:35:00;99257.19;;;27.72;32.14
64616;BME280;51027;42.162;24.754;2022-08-01T08:37:26;99276.78;;;27.43;31.88
64616;BME280;51027;42.162;24.754;2022-08-01T08:39:52;99267.66;;;27.44;32.48
64616;BME280;51027;42.162;24.754;2022-08-01T08:42:18;99270.84;;;28.17;32.09
64616;BME280;51027;42.162;24.754;2022-08-01T08:44:44;99271.63;;;27.56;32.31
64616;BME280;51027;42.162;24.754;2022-08-01T08:47:11;99272.38;;;27.96;32.40
64616;BME280;51027;42.162;24.754;2022-08-01T08:49:38;99266.13;;;27.96;31.80
64616;BME280;51027;42.162;24.754;2022-08-01T08:52:04;99250.44;;;27.91;32.05
64616;BME280;51027;42.162;24.754;2022-08-01T08:54:31;99269.06;;;28.09;32.40
64616;BME280;51027;42.162;24.754;2022-08-01T08:56:59;99236.22;;;27.89;32.53
64616;BME280;51027;42.162;24.754;2022-08-01T08:59:25;99258.44;;;27.84;32.60
64616;BME280;51027;42.162;24.754;2022-08-01T09:01:51;99240.22;;;28.01;32.16
64616;BME280;51027;42.162;24.754;2022-08-01T09:04:17;99231.84;;;27.88;32.72
64616;BME280;51027;42.162;24.754;2022-08-01T09:06:43;99234.69;;;28.09;32.76
64616;BME280;51027;42.162;24.754;2022-08-01T09:09:09;99258.94;;;28.26;32.58
64616;BME280;51027;42.162;24.754;2022-08-01T09:11:35;99254.41;;;28.03;32.68
64616;BME280;51027;42.162;24.754;2022-08-01T09:14:17;99248.09;;;27.88;32.49
64616;BME280;51027;42.162;24.754;2022-08-01T09:17:03;99229.47;;;28.08;32.61
64616;BME280;51027;42.162;24.754;2022-08-01T09:22:10;99245.34;;;28.63;32.27
64616;BME280;51027;42.162;24.754;2022-08-01T09:24:38;99225.25;;;28.73;31.91
64616;BME280;51027;42.162;24.754;2022-08-01T09:27:19;99210.75;;;28.80;32.39
64616;BME280;51027;42.162;24.754;2022-08-01T09:29:45;99234.22;;;28.73;32.06
64616;BME280;51027;42.162;24.754;2022-08-01T09:32:11;99237.41;;;28.77;32.40
64616;BME280;51027;42.162;24.754;2022-08-01T09:34:36;99236.38;;;29.07;32.33
64616;BME280;51027;42.162;24.754;2022-08-01T09:37:03;99225.06;;;29.04;32.42
64616;BME280;51027;42.162;24.754;2022-08-01T09:39:31;99232.75;;;29.21;32.37
64616;BME280;51027;42.162;24.754;2022-08-01T09:41:59;99217.81;;;29.11;31.79
64616;BME280;51027;42.162;24.754;2022-08-01T09:44:44;99228.78;;;29.53;31.92
64616;BME280;51027;42.162;24.754;2022-08-01T09:47:11;99226.97;;;29.24;31.06
64616;BME280;51027;42.162;24.754;2022-08-01T09:49:38;99197.38;;;29.30;31.08
64616;BME280;51027;42.162;24.754;2022-08-01T09:52:22;99219.09;;;29.30;31.47
64616;BME280;51027;42.162;24.754;2022-08-01T09:54:56;99222.81;;;29.07;31.49
64616;BME280;51027;42.162;24.754;2022-08-01T09:57:21;99197.81;;;29.12;31.13
64616;BME280;51027;42.162;24.754;2022-08-01T09:59:50;99220.84;;;29.01;32.28
64616;BME280;51027;42.162;24.754;2022-08-01T10:02:36;99211.38;;;29.48;31.38
64616;BME280;51027;42.162;24.754;2022-08-01T10:05:07;99215.94;;;29.11;31.72
64616;BME280;51027;42.162;24.754;2022-08-01T10:07:36;99206.88;;;29.19;31.74
64616;BME280;51027;42.162;24.754;2022-08-01T10:10:12;99214.84;;;29.42;31.54
64616;BME280;51027;42.162;24.754;2022-08-01T10:12:40;99211.19;;;29.49;31.48
64616;BME280;51027;42.162;24.754;2022-08-01T10:15:05;99190.38;;;29.35;31.14
64616;BME280;51027;42.162;24.754;2022-08-01T10:17:32;99207.31;;;29.59;31.68
64616;BME280;51027;42.162;24.754;2022-08-01T10:20:00;99207.91;;;29.18;31.43
64616;BME280;51027;42.162;24.754;2022-08-01T10:22:27;99205.59;;;29.15;31.86
64616;BME280;51027;42.162;24.754;2022-08-01T10:24:55;99212.53;;;29.60;31.05
64616;BME280;51027;42.162;24.754;2022-08-01T10:27:22;99179.53;;;29.57;30.82
64616;BME280;51027;42.162;24.754;2022-08-01T10:29:57;99209.78;;;29.75;31.02
64616;BME280;51027;42.162;24.754;2022-08-01T10:32:23;99209.38;;;29.78;31.18
64616;BME280;51027;42.162;24.754;2022-08-01T10:34:49;99203.94;;;29.78;30.87
64616;BME280;51027;42.162;24.754;2022-08-01T10:37:15;99197.13;;;28.88;31.93
64616;BME280;51027;42.162;24.754;2022-08-01T10:39:42;99185.25;;;29.25;31.21
64616;BME280;51027;42.162;24.754;2022-08-01T10:42:10;99206.59;;;29.50;31.08
64616;BME280;51027;42.162;24.754;2022-08-01T10:44:37;99195.81;;;29.57;31.13
64616;BME280;51027;42.162;24.754;2022-08-01T10:47:09;99196.63;;;29.78;31.04
64616;BME280;51027;42.162;24.754;2022-08-01T10:49:41;99210.44;;;29.56;31.59
64616;BME280;51027;42.162;24.754;2022-08-01T10:52:14;99205.56;;;29.51;31.26
64616;BME280;51027;42.162;24.754;2022-08-01T10:54:40;99208.09;;;29.74;31.72
64616;BME280;51027;42.162;24.754;2022-08-01T10:57:05;99192.56;;;29.10;31.48
64616;BME280;51027;42.162;24.754;2022-08-01T10:59:32;99197.56;;;29.07;31.87
64616;BME280;51027;42.162;24.754;2022-08-01T11:02:04;99198.44;;;28.92;31.78
64616;BME280;51027;42.162;24.754;2022-08-01T11:07:13;99200.31;;;29.71;31.18
64616;BME280;51027;42.162;24.754;2022-08-01T11:09:58;99196.50;;;29.44;31.31
64616;BME280;51027;42.162;24.754;2022-08-01T11:12:38;99188.03;;;28.96;32.12
64616;BME280;51027;42.162;24.754;2022-08-01T11:17:40;99194.63;;;29.44;31.16
64616;BME280;51027;42.162;24.754;2022-08-01T11:20:17;99180.88;;;29.67;31.48
64616;BME280;51027;42.162;24.754;2022-08-01T11:25:24;99175.28;;;29.97;30.96
64616;BME280;51027;42.162;24.754;2022-08-01T11:33:56;99181.75;;;30.24;30.26
64616;BME280;51027;42.162;24.754;2022-08-01T11:36:22;99167.03;;;30.39;30.19
64616;BME280;51027;42.162;24.754;2022-08-01T11:41:24;99158.47;;;30.84;30.04
64616;BME280;51027;42.162;24.754;2022-08-01T11:44:03;99172.28;;;29.85;30.23
64616;BME280;51027;42.162;24.754;2022-08-01T11:47:00;99174.22;;;29.70;31.43
64616;BME280;51027;42.162;24.754;2022-08-01T11:55:05;99176.84;;;30.40;29.84
64616;BME280;51027;42.162;24.754;2022-08-01T11:57:32;99158.06;;;30.46;29.86
64616;BME280;51027;42.162;24.754;2022-08-01T12:02:36;99140.66;;;30.68;29.47
64616;BME280;51027;42.162;24.754;2022-08-01T12:07:31;99159.53;;;30.89;29.64
64616;BME280;51027;42.162;24.754;2022-08-01T12:10:03;99159.06;;;31.40;29.93
64616;BME280;51027;42.162;24.754;2022-08-01T12:12:31;99149.19;;;31.26;29.13
64616;BME280;51027;42.162;24.754;2022-08-01T12:14:59;99148.53;;;31.17;28.92
64616;BME280;51027;42.162;24.754;2022-08-01T12:17:32;99154.81;;;31.18;28.69
64616;BME280;51027;42.162;24.754;2022-08-01T12:19:58;99148.16;;;31.27;28.92
64616;BME280;51027;42.162;24.754;2022-08-01T12:22:24;99162.22;;;30.76;29.01
64616;BME280;51027;42.162;24.754;2022-08-01T12:24:50;99171.22;;;30.77;29.37
64616;BME280;51027;42.162;24.754;2022-08-01T12:27:29;99153.28;;;31.02;29.10
64616;BME280;51027;42.162;24.754;2022-08-01T12:29:56;99135.84;;;31.38;28.72
64616;BME280;51027;42.162;24.754;2022-08-01T12:34:49;99149.63;;;30.75;28.69
64616;BME280;51027;42.162;24.754;2022-08-01T12:37:14;99141.56;;;30.47;29.42
64616;BME280;51027;42.162;24.754;2022-08-01T12:39:40;99120.69;;;30.61;28.32
64616;BME280;51027;42.162;24.754;2022-08-01T12:42:07;99132.94;;;30.78;29.30
64616;BME280;51027;42.162;24.754;2022-08-01T12:44:33;99122.03;;;30.72;29.19
64616;BME280;51027;42.162;24.754;2022-08-01T12:47:00;99137.41;;;31.12;28.90
64616;BME280;51027;42.162;24.754;2022-08-01T12:49:26;99129.75;;;31.42;28.40
64616;BME280;51027;42.162;24.754;2022-08-01T12:51:53;99141.47;;;30.75;28.77
64616;BME280;51027;42.162;24.754;2022-08-01T12:54:19;99079.03;;;30.06;29.47
64616;BME280;51027;42.162;24.754;2022-08-01T12:56:45;99128.44;;;30.57;29.31
64616;BME280;51027;42.162;24.754;2022-08-01T12:59:24;99119.22;;;31.06;29.09
64616;BME280;51027;42.162;24.754;2022-08-01T13:01:55;99138.66;;;30.96;28.41
64616;BME280;51027;42.162;24.754;2022-08-01T13:04:22;99090.88;;;30.33;29.35
64616;BME280;51027;42.162;24.754;2022-08-01T13:06:48;99131.38;;;30.62;29.47
64616;BME280;51027;42.162;24.754;2022-08-01T13:09:18;99125.75;;;30.23;30.20
64616;BME280;51027;42.162;24.754;2022-08-01T13:11:44;99127.72;;;30.83;29.60
64616;BME280;51027;42.162;24.754;2022-08-01T13:14:27;99135.50;;;31.00;29.75
64616;BME280;51027;42.162;24.754;2022-08-01T13:16:52;99124.50;;;31.28;29.02
64616;BME280;51027;42.162;24.754;2022-08-01T13:19:18;99128.00;;;31.15;28.99
64616;BME280;51027;42.162;24.754;2022-08-01T13:21:56;99127.16;;;31.14;28.72
64616;BME280;51027;42.162;24.754;2022-08-01T13:24:29;99121.19;;;31.39;28.88
64616;BME280;51027;42.162;24.754;2022-08-01T13:26:55;99128.78;;;30.89;29.70
64616;BME280;51027;42.162;24.754;2022-08-01T13:31:55;99070.25;;;31.13;29.73
64616;BME280;51027;42.162;24.754;2022-08-01T13:34:33;99115.72;;;31.32;29.43
64616;BME280;51027;42.162;24.754;2022-08-01T13:37:00;99106.31;;;31.61;28.51
64616;BME280;51027;42.162;24.754;2022-08-01T13:39:30;99105.72;;;31.79;28.73
64616;BME280;51027;42.162;24.754;2022-08-01T13:42:14;99105.28;;;31.89;28.35